sensor_id;sensor_type;location;lat;lon;timestamp;P1;durP1;ratioP1;P2;durP2;ratioP2
39094;SDS011;24840;47.508;19.376;2023-05-07T00:00:00;4.90;;;4.40;;
39094;SDS011;24840;47.508;19.376;2023-05-07T00:02:26;7.00;;;5.43;;
39094;SDS011;24840;47.508;19.376;2023-05-07T00:05:17;7.18;;;5.03;;
39094;SDS011;24840;47.508;19.376;2023-05-07T00:07:43;5.13;;;4.60;;
39094;SDS011;24840;47.508;19.376;2023-05-07T00:10:09;5.25;;;4.45;;
39094;SDS011;24840;47.508;19.376;2023-05-07T00:12:37;6.18;;;5.53;;
39094;SDS011;24840;47.508;19.376;2023-05-07T00:15:03;6.40;;;5.80;;
39094;SDS011;24840;47.508;19.376;2023-05-07T00:17:29;5.72;;;5.15;;
39094;SDS011;24840;47.508;19.376;2023-05-07T00:19:55;6.28;;;5.68;;
39094;SDS011;24840;47.508;19.376;2023-05-07T00:22:21;6.03;;;5.50;;
39094;SDS011;24840;47.508;19.376;2023-05-07T00:24:47;6.10;;;5.50;;
39094;SDS011;24840;47.508;19.376;2023-05-07T00:27:12;6.45;;;5.85;;
39094;SDS011;24840;47.508;19.376;2023-05-07T00:29:38;6.25;;;5.40;;
39094;SDS011;24840;47.508;19.376;2023-05-07T00:32:04;7.75;;;5.70;;
39094;SDS011;24840;47.508;19.376;2023-05-07T00:34:30;7.53;;;6.63;;
39094;SDS011;24840;47.508;19.376;2023-05-07T00:36:56;7.72;;;6.93;;
39094;SDS011;24840;47.508;19.376;2023-05-07T00:39:21;6.13;;;5.63;;
39094;SDS011;24840;47.508;19.376;2023-05-07T00:41:47;6.78;;;5.63;;
39094;SDS011;24840;47.508;19.376;2023-05-07T00:44:13;7.13;;;5.97;;
39094;SDS011;24840;47.508;19.376;2023-05-07T00:46:39;6.38;;;5.60;;
39094;SDS011;24840;47.508;19.376;2023-05-07T00:49:05;5.97;;;5.47;;
39094;SDS011;24840;47.508;19.376;2023-05-07T00:51:31;6.20;;;5.57;;
39094;SDS011;24840;47.508;19.376;2023-05-07T00:54:00;5.82;;;5.30;;
39094;SDS011;24840;47.508;19.376;2023-05-07T00:56:27;6.57;;;5.70;;
39094;SDS011;24840;47.508;19.376;2023-05-07T00:58:53;5.82;;;4.97;;
39094;SDS011;24840;47.508;19.376;2023-05-07T01:01:19;5.05;;;4.60;;
39094;SDS011;24840;47.508;19.376;2023-05-07T01:03:45;6.30;;;5.65;;
39094;SDS011;24840;47.508;19.376;2023-05-07T01:06:11;5.93;;;5.32;;
39094;SDS011;24840;47.508;19.376;2023-05-07T01:08:38;6.20;;;5.70;;
39094;SDS011;24840;47.508;19.376;2023-05-07T01:11:05;10.23;;;5.68;;
39094;SDS011;24840;47.508;19.376;2023-05-07T01:13:32;19.50;;;6.50;;
39094;SDS011;24840;47.508;19.376;2023-05-07T01:15:59;9.32;;;6.65;;
39094;SDS011;24840;47.508;19.376;2023-05-07T01:18:25;8.95;;;6.10;;
39094;SDS011;24840;47.508;19.376;2023-05-07T01:20:51;6.97;;;6.15;;
39094;SDS011;24840;47.508;19.376;2023-05-07T01:23:17;6.32;;;5.72;;
39094;SDS011;24840;47.508;19.376;2023-05-07T01:25:43;7.20;;;6.25;;
39094;SDS011;24840;47.508;19.376;2023-05-07T01:28:19;5.97;;;5.40;;
39094;SDS011;24840;47.508;19.376;2023-05-07T01:30:46;5.68;;;5.18;;
39094;SDS011;24840;47.508;19.376;2023-05-07T01:33:17;6.13;;;5.30;;
39094;SDS011;24840;47.508;19.376;2023-05-07T01:35:47;7.40;;;5.93;;
39094;SDS011;24840;47.508;19.376;2023-05-07T01:38:16;5.38;;;4.88;;
39094;SDS011;24840;47.508;19.376;2023-05-07T01:40:43;6.60;;;5.45;;
39094;SDS011;24840;47.508;19.376;2023-05-07T01:43:10;8.10;;;5.38;;
39094;SDS011;24840;47.508;19.376;2023-05-07T01:45:36;6.28;;;5.68;;
39094;SDS011;24840;47.508;19.376;2023-05-07T01:48:02;6.20;;;5.60;;
39094;SDS011;24840;47.508;19.376;2023-05-07T01:50:28;5.35;;;4.85;;
39094;SDS011;24840;47.508;19.376;2023-05-07T01:52:55;6.03;;;5.18;;
39094;SDS011;24840;47.508;19.376;2023-05-07T01:55:21;5.18;;;4.68;;
39094;SDS011;24840;47.508;19.376;2023-05-07T01:57:47;5.25;;;4.75;;
39094;SDS011;24840;47.508;19.376;2023-05-07T02:00:13;6.25;;;5.03;;
39094;SDS011;24840;47.508;19.376;2023-05-07T02:02:39;5.47;;;4.97;;
39094;SDS011;24840;47.508;19.376;2023-05-07T02:05:05;11.55;;;5.70;;
39094;SDS011;24840;47.508;19.376;2023-05-07T02:07:31;5.80;;;5.20;;
39094;SDS011;24840;47.508;19.376;2023-05-07T02:09:56;5.68;;;5.10;;
39094;SDS011;24840;47.508;19.376;2023-05-07T02:12:22;7.72;;;5.95;;
39094;SDS011;24840;47.508;19.376;2023-05-07T02:14:48;5.90;;;5.30;;
39094;SDS011;24840;47.508;19.376;2023-05-07T02:17:14;5.80;;;5.22;;
39094;SDS011;24840;47.508;19.376;2023-05-07T02:19:40;6.65;;;5.07;;
39094;SDS011;24840;47.508;19.376;2023-05-07T02:22:06;5.70;;;4.60;;
39094;SDS011;24840;47.508;19.376;2023-05-07T02:24:32;5.40;;;4.90;;
39094;SDS011;24840;47.508;19.376;2023-05-07T02:26:58;6.30;;;5.70;;
39094;SDS011;24840;47.508;19.376;2023-05-07T02:29:23;5.82;;;5.00;;
39094;SDS011;24840;47.508;19.376;2023-05-07T02:31:49;5.75;;;5.22;;
39094;SDS011;24840;47.508;19.376;2023-05-07T02:34:18;5.40;;;4.90;;
39094;SDS011;24840;47.508;19.376;2023-05-07T02:36:44;5.47;;;4.97;;
39094;SDS011;24840;47.508;19.376;2023-05-07T02:39:10;6.70;;;4.90;;
39094;SDS011;24840;47.508;19.376;2023-05-07T02:41:37;6.03;;;5.40;;
39094;SDS011;24840;47.508;19.376;2023-05-07T02:44:02;6.13;;;5.63;;
39094;SDS011;24840;47.508;19.376;2023-05-07T02:46:28;6.53;;;5.50;;
39094;SDS011;24840;47.508;19.376;2023-05-07T02:48:54;5.00;;;4.50;;
39094;SDS011;24840;47.508;19.376;2023-05-07T02:51:20;6.07;;;5.47;;
39094;SDS011;24840;47.508;19.376;2023-05-07T02:53:47;5.50;;;4.43;;
39094;SDS011;24840;47.508;19.376;2023-05-07T02:56:12;5.40;;;4.93;;
39094;SDS011;24840;47.508;19.376;2023-05-07T02:58:38;5.93;;;4.88;;
39094;SDS011;24840;47.508;19.376;2023-05-07T03:01:04;7.38;;;5.18;;
39094;SDS011;24840;47.508;19.376;2023-05-07T03:03:31;5.97;;;5.47;;
39094;SDS011;24840;47.508;19.376;2023-05-07T03:05:57;6.63;;;5.18;;
39094;SDS011;24840;47.508;19.376;2023-05-07T03:08:22;6.82;;;5.00;;
39094;SDS011;24840;47.508;19.376;2023-05-07T03:10:48;5.43;;;4.93;;
39094;SDS011;24840;47.508;19.376;2023-05-07T03:13:14;6.68;;;5.80;;
39094;SDS011;24840;47.508;19.376;2023-05-07T03:15:40;8.13;;;5.97;;
39094;SDS011;24840;47.508;19.376;2023-05-07T03:18:06;5.55;;;5.05;;
39094;SDS011;24840;47.508;19.376;2023-05-07T03:20:31;6.05;;;5.35;;
39094;SDS011;24840;47.508;19.376;2023-05-07T03:22:57;5.75;;;5.20;;
39094;SDS011;24840;47.508;19.376;2023-05-07T03:25:23;16.23;;;5.18;;
39094;SDS011;24840;47.508;19.376;2023-05-07T03:27:48;7.85;;;6.25;;
39094;SDS011;24840;47.508;19.376;2023-05-07T03:30:14;6.07;;;5.30;;
39094;SDS011;24840;47.508;19.376;2023-05-07T03:32:40;6.90;;;6.10;;
39094;SDS011;24840;47.508;19.376;2023-05-07T03:35:06;7.78;;;6.38;;
39094;SDS011;24840;47.508;19.376;2023-05-07T03:37:32;6.35;;;5.72;;
39094;SDS011;24840;47.508;19.376;2023-05-07T03:39:58;6.35;;;5.68;;
39094;SDS011;24840;47.508;19.376;2023-05-07T03:42:24;7.18;;;5.53;;
39094;SDS011;24840;47.508;19.376;2023-05-07T03:44:50;7.65;;;6.43;;
39094;SDS011;24840;47.508;19.376;2023-05-07T03:47:15;6.00;;;5.47;;
39094;SDS011;24840;47.508;19.376;2023-05-07T03:49:41;6.82;;;6.22;;
39094;SDS011;24840;47.508;19.376;2023-05-07T03:52:06;7.28;;;5.82;;
39094;SDS011;24840;47.508;19.376;2023-05-07T03:54:32;10.38;;;6.28;;
39094;SDS011;24840;47.508;19.376;2023-05-07T03:56:58;6.65;;;5.93;;
39094;SDS011;24840;47.508;19.376;2023-05-07T03:59:24;6.90;;;5.90;;
39094;SDS011;24840;47.508;19.376;2023-05-07T04:01:49;7.03;;;6.43;;
39094;SDS011;24840;47.508;19.376;2023-05-07T04:04:15;8.23;;;5.70;;
39094;SDS011;24840;47.508;19.376;2023-05-07T04:06:41;7.00;;;6.10;;
39094;SDS011;24840;47.508;19.376;2023-05-07T04:09:07;9.98;;;6.32;;
39094;SDS011;24840;47.508;19.376;2023-05-07T04:11:33;8.52;;;6.63;;
39094;SDS011;24840;47.508;19.376;2023-05-07T04:13:59;7.15;;;6.47;;
39094;SDS011;24840;47.508;19.376;2023-05-07T04:16:25;12.63;;;7.00;;
39094;SDS011;24840;47.508;19.376;2023-05-07T04:18:51;7.97;;;7.18;;
39094;SDS011;24840;47.508;19.376;2023-05-07T04:21:17;7.03;;;6.32;;
39094;SDS011;24840;47.508;19.376;2023-05-07T04:23:44;8.52;;;6.97;;
39094;SDS011;24840;47.508;19.376;2023-05-07T04:26:10;7.43;;;6.63;;
39094;SDS011;24840;47.508;19.376;2023-05-07T04:28:36;8.10;;;7.25;;
39094;SDS011;24840;47.508;19.376;2023-05-07T04:31:02;9.55;;;7.50;;
39094;SDS011;24840;47.508;19.376;2023-05-07T04:33:27;9.52;;;7.38;;
39094;SDS011;24840;47.508;19.376;2023-05-07T04:35:53;7.78;;;7.03;;
39094;SDS011;24840;47.508;19.376;2023-05-07T04:38:19;10.25;;;7.25;;
39094;SDS011;24840;47.508;19.376;2023-05-07T04:40:45;13.45;;;7.10;;
39094;SDS011;24840;47.508;19.376;2023-05-07T04:43:11;10.02;;;7.78;;
39094;SDS011;24840;47.508;19.376;2023-05-07T04:45:38;8.55;;;7.68;;
39094;SDS011;24840;47.508;19.376;2023-05-07T04:48:06;11.40;;;7.75;;
39094;SDS011;24840;47.508;19.376;2023-05-07T04:50:34;10.65;;;8.07;;
39094;SDS011;24840;47.508;19.376;2023-05-07T04:53:00;9.50;;;8.18;;
39094;SDS011;24840;47.508;19.376;2023-05-07T04:55:27;9.25;;;8.20;;
39094;SDS011;24840;47.508;19.376;2023-05-07T04:57:52;12.95;;;8.60;;
39094;SDS011;24840;47.508;19.376;2023-05-07T05:00:18;8.63;;;7.80;;
39094;SDS011;24840;47.508;19.376;2023-05-07T05:02:44;9.43;;;8.48;;
39094;SDS011;24840;47.508;19.376;2023-05-07T05:05:11;11.23;;;9.07;;
39094;SDS011;24840;47.508;19.376;2023-05-07T05:07:36;10.07;;;8.38;;
39094;SDS011;24840;47.508;19.376;2023-05-07T05:10:02;11.98;;;8.43;;
39094;SDS011;24840;47.508;19.376;2023-05-07T05:12:30;12.95;;;9.95;;
39094;SDS011;24840;47.508;19.376;2023-05-07T05:14:56;14.52;;;10.25;;
39094;SDS011;24840;47.508;19.376;2023-05-07T05:17:22;17.80;;;10.48;;
39094;SDS011;24840;47.508;19.376;2023-05-07T05:19:48;12.25;;;10.63;;
39094;SDS011;24840;47.508;19.376;2023-05-07T05:22:14;18.38;;;11.77;;
39094;SDS011;24840;47.508;19.376;2023-05-07T05:24:40;13.02;;;11.18;;
39094;SDS011;24840;47.508;19.376;2023-05-07T05:27:05;16.48;;;12.63;;
39094;SDS011;24840;47.508;19.376;2023-05-07T05:29:31;14.25;;;12.82;;
39094;SDS011;24840;47.508;19.376;2023-05-07T05:31:57;14.18;;;12.48;;
39094;SDS011;24840;47.508;19.376;2023-05-07T05:34:23;15.52;;;13.13;;
39094;SDS011;24840;47.508;19.376;2023-05-07T05:36:48;14.32;;;12.55;;
39094;SDS011;24840;47.508;19.376;2023-05-07T05:39:14;17.55;;;12.90;;
39094;SDS011;24840;47.508;19.376;2023-05-07T05:41:40;17.27;;;12.50;;
39094;SDS011;24840;47.508;19.376;2023-05-07T05:44:06;13.32;;;11.93;;
39094;SDS011;24840;47.508;19.376;2023-05-07T05:46:32;15.95;;;14.38;;
39094;SDS011;24840;47.508;19.376;2023-05-07T05:48:57;15.50;;;13.95;;
39094;SDS011;24840;47.508;19.376;2023-05-07T05:51:23;17.75;;;13.50;;
39094;SDS011;24840;47.508;19.376;2023-05-07T05:53:49;21.88;;;17.20;;
39094;SDS011;24840;47.508;19.376;2023-05-07T05:56:15;18.08;;;16.08;;
39094;SDS011;24840;47.508;19.376;2023-05-07T05:58:41;19.80;;;17.73;;
39094;SDS011;24840;47.508;19.376;2023-05-07T06:01:07;23.40;;;18.98;;
39094;SDS011;24840;47.508;19.376;2023-05-07T06:03:33;22.73;;;18.23;;
39094;SDS011;24840;47.508;19.376;2023-05-07T06:05:58;22.13;;;17.35;;
39094;SDS011;24840;47.508;19.376;2023-05-07T06:08:25;21.00;;;18.77;;
39094;SDS011;24840;47.508;19.376;2023-05-07T06:10:53;23.33;;;20.08;;
39094;SDS011;24840;47.508;19.376;2023-05-07T06:13:19;21.27;;;19.15;;
39094;SDS011;24840;47.508;19.376;2023-05-07T06:15:45;22.92;;;20.63;;
39094;SDS011;24840;47.508;19.376;2023-05-07T06:18:11;26.88;;;19.70;;
39094;SDS011;24840;47.508;19.376;2023-05-07T06:20:37;24.35;;;21.95;;
39094;SDS011;24840;47.508;19.376;2023-05-07T06:23:02;20.95;;;18.85;;
39094;SDS011;24840;47.508;19.376;2023-05-07T06:25:28;18.77;;;16.88;;
39094;SDS011;24840;47.508;19.376;2023-05-07T06:27:54;14.85;;;13.35;;
39094;SDS011;24840;47.508;19.376;2023-05-07T06:30:19;14.30;;;12.25;;
39094;SDS011;24840;47.508;19.376;2023-05-07T06:32:45;14.07;;;12.60;;
39094;SDS011;24840;47.508;19.376;2023-05-07T06:35:11;14.18;;;12.68;;
39094;SDS011;24840;47.508;19.376;2023-05-07T06:37:39;14.43;;;12.68;;
39094;SDS011;24840;47.508;19.376;2023-05-07T06:40:07;13.77;;;11.00;;
39094;SDS011;24840;47.508;19.376;2023-05-07T06:42:35;11.32;;;9.38;;
39094;SDS011;24840;47.508;19.376;2023-05-07T06:45:01;12.98;;;8.93;;
39094;SDS011;24840;47.508;19.376;2023-05-07T06:47:27;8.25;;;6.40;;
39094;SDS011;24840;47.508;19.376;2023-05-07T06:49:53;8.88;;;7.53;;
39094;SDS011;24840;47.508;19.376;2023-05-07T06:52:19;7.97;;;6.35;;
39094;SDS011;24840;47.508;19.376;2023-05-07T06:54:45;9.02;;;6.75;;
39094;SDS011;24840;47.508;19.376;2023-05-07T06:57:10;7.95;;;6.70;;
39094;SDS011;24840;47.508;19.376;2023-05-07T06:59:36;12.00;;;6.25;;
39094;SDS011;24840;47.508;19.376;2023-05-07T07:02:02;7.40;;;5.55;;
39094;SDS011;24840;47.508;19.376;2023-05-07T07:04:27;7.07;;;6.35;;
39094;SDS011;24840;47.508;19.376;2023-05-07T07:06:53;6.82;;;6.22;;
39094;SDS011;24840;47.508;19.376;2023-05-07T07:09:19;7.93;;;5.35;;
39094;SDS011;24840;47.508;19.376;2023-05-07T07:11:45;6.03;;;5.38;;
39094;SDS011;24840;47.508;19.376;2023-05-07T07:14:11;6.97;;;5.00;;
39094;SDS011;24840;47.508;19.376;2023-05-07T07:16:37;4.43;;;4.03;;
39094;SDS011;24840;47.508;19.376;2023-05-07T07:19:02;4.20;;;3.80;;
39094;SDS011;24840;47.508;19.376;2023-05-07T07:21:28;5.85;;;3.83;;
39094;SDS011;24840;47.508;19.376;2023-05-07T07:23:54;4.57;;;4.18;;
39094;SDS011;24840;47.508;19.376;2023-05-07T07:26:20;4.10;;;2.05;;
39094;SDS011;24840;47.508;19.376;2023-05-07T07:28:46;1.50;;;1.40;;
39094;SDS011;24840;47.508;19.376;2023-05-07T07:31:12;3.17;;;2.88;;
39094;SDS011;24840;47.508;19.376;2023-05-07T07:33:38;6.55;;;2.92;;
39094;SDS011;24840;47.508;19.376;2023-05-07T07:36:05;5.40;;;2.63;;
39094;SDS011;24840;47.508;19.376;2023-05-07T07:38:31;4.72;;;1.90;;
39094;SDS011;24840;47.508;19.376;2023-05-07T07:40:57;3.45;;;2.33;;
39094;SDS011;24840;47.508;19.376;2023-05-07T07:43:23;2.17;;;1.80;;
39094;SDS011;24840;47.508;19.376;2023-05-07T07:45:48;1.83;;;1.63;;
39094;SDS011;24840;47.508;19.376;2023-05-07T07:48:14;2.80;;;2.13;;
39094;SDS011;24840;47.508;19.376;2023-05-07T07:50:40;3.92;;;2.58;;
39094;SDS011;24840;47.508;19.376;2023-05-07T07:53:06;3.05;;;2.72;;
39094;SDS011;24840;47.508;19.376;2023-05-07T07:55:31;3.78;;;2.70;;
39094;SDS011;24840;47.508;19.376;2023-05-07T07:57:57;3.65;;;2.53;;
39094;SDS011;24840;47.508;19.376;2023-05-07T08:00:23;3.47;;;3.15;;
39094;SDS011;24840;47.508;19.376;2023-05-07T08:02:49;4.95;;;3.22;;
39094;SDS011;24840;47.508;19.376;2023-05-07T08:05:14;3.30;;;2.70;;
39094;SDS011;24840;47.508;19.376;2023-05-07T08:07:40;5.13;;;3.17;;
39094;SDS011;24840;47.508;19.376;2023-05-07T08:10:06;3.72;;;3.20;;
39094;SDS011;24840;47.508;19.376;2023-05-07T08:12:32;5.15;;;2.90;;
39094;SDS011;24840;47.508;19.376;2023-05-07T08:14:58;10.77;;;2.97;;
39094;SDS011;24840;47.508;19.376;2023-05-07T08:17:24;9.00;;;3.97;;
39094;SDS011;24840;47.508;19.376;2023-05-07T08:19:49;6.88;;;3.90;;
39094;SDS011;24840;47.508;19.376;2023-05-07T08:22:15;6.07;;;3.70;;
39094;SDS011;24840;47.508;19.376;2023-05-07T08:24:43;3.85;;;3.42;;
39094;SDS011;24840;47.508;19.376;2023-05-07T08:27:08;3.42;;;3.13;;
39094;SDS011;24840;47.508;19.376;2023-05-07T08:29:34;4.65;;;3.88;;
39094;SDS011;24840;47.508;19.376;2023-05-07T08:32:00;3.28;;;2.97;;
39094;SDS011;24840;47.508;19.376;2023-05-07T08:34:26;4.93;;;3.95;;
39094;SDS011;24840;47.508;19.376;2023-05-07T08:36:52;9.25;;;5.55;;
39094;SDS011;24840;47.508;19.376;2023-05-07T08:39:18;3.92;;;3.42;;
39094;SDS011;24840;47.508;19.376;2023-05-07T08:41:44;4.45;;;2.97;;
39094;SDS011;24840;47.508;19.376;2023-05-07T08:44:13;13.60;;;4.22;;
39094;SDS011;24840;47.508;19.376;2023-05-07T08:46:39;4.00;;;3.38;;
39094;SDS011;24840;47.508;19.376;2023-05-07T08:49:06;6.20;;;2.92;;
39094;SDS011;24840;47.508;19.376;2023-05-07T08:51:33;8.02;;;4.68;;
39094;SDS011;24840;47.508;19.376;2023-05-07T08:53:59;5.15;;;4.28;;
39094;SDS011;24840;47.508;19.376;2023-05-07T08:56:26;4.97;;;2.90;;
39094;SDS011;24840;47.508;19.376;2023-05-07T08:58:52;8.05;;;3.45;;
39094;SDS011;24840;47.508;19.376;2023-05-07T09:01:21;7.68;;;3.05;;
39094;SDS011;24840;47.508;19.376;2023-05-07T09:03:47;7.60;;;3.10;;
39094;SDS011;24840;47.508;19.376;2023-05-07T09:06:15;2.97;;;2.47;;
39094;SDS011;24840;47.508;19.376;2023-05-07T09:08:44;4.40;;;2.88;;
39094;SDS011;24840;47.508;19.376;2023-05-07T09:11:19;3.67;;;3.38;;
39094;SDS011;24840;47.508;19.376;2023-05-07T09:13:52;9.05;;;2.75;;
39094;SDS011;24840;47.508;19.376;2023-05-07T09:16:20;3.13;;;2.83;;
39094;SDS011;24840;47.508;19.376;2023-05-07T09:18:48;3.88;;;3.10;;
39094;SDS011;24840;47.508;19.376;2023-05-07T09:21:17;2.58;;;2.38;;
39094;SDS011;24840;47.508;19.376;2023-05-07T09:23:43;4.10;;;3.00;;
39094;SDS011;24840;47.508;19.376;2023-05-07T09:26:09;5.88;;;3.08;;
39094;SDS011;24840;47.508;19.376;2023-05-07T09:28:39;7.30;;;3.13;;
39094;SDS011;24840;47.508;19.376;2023-05-07T09:31:06;9.77;;;3.50;;
39094;SDS011;24840;47.508;19.376;2023-05-07T09:33:36;5.60;;;2.92;;
39094;SDS011;24840;47.508;19.376;2023-05-07T09:36:03;7.82;;;2.55;;
39094;SDS011;24840;47.508;19.376;2023-05-07T09:38:30;2.78;;;2.20;;
39094;SDS011;24840;47.508;19.376;2023-05-07T09:41:04;4.20;;;2.65;;
39094;SDS011;24840;47.508;19.376;2023-05-07T09:43:36;3.05;;;2.42;;
39094;SDS011;24840;47.508;19.376;2023-05-07T09:46:12;8.65;;;2.25;;
39094;SDS011;24840;47.508;19.376;2023-05-07T09:48:39;2.42;;;2.22;;
39094;SDS011;24840;47.508;19.376;2023-05-07T09:51:18;2.35;;;1.90;;
39094;SDS011;24840;47.508;19.376;2023-05-07T09:53:47;4.18;;;2.25;;
39094;SDS011;24840;47.508;19.376;2023-05-07T09:56:14;3.17;;;2.05;;
39094;SDS011;24840;47.508;19.376;2023-05-07T09:58:43;2.38;;;1.98;;
39094;SDS011;24840;47.508;19.376;2023-05-07T10:01:10;2.38;;;1.90;;
39094;SDS011;24840;47.508;19.376;2023-05-07T10:03:37;2.58;;;2.15;;
39094;SDS011;24840;47.508;19.376;2023-05-07T10:06:07;4.00;;;2.17;;
39094;SDS011;24840;47.508;19.376;2023-05-07T10:08:35;2.83;;;1.92;;
39094;SDS011;24840;47.508;19.376;2023-05-07T10:11:01;2.83;;;2.08;;
39094;SDS011;24840;47.508;19.376;2023-05-07T10:13:28;7.95;;;2.88;;
39094;SDS011;24840;47.508;19.376;2023-05-07T10:15:54;7.90;;;3.35;;
39094;SDS011;24840;47.508;19.376;2023-05-07T10:18:21;8.48;;;2.63;;
39094;SDS011;24840;47.508;19.376;2023-05-07T10:20:48;3.15;;;2.40;;
39094;SDS011;24840;47.508;19.376;2023-05-07T10:23:18;1.90;;;1.67;;
39094;SDS011;24840;47.508;19.376;2023-05-07T10:25:48;5.70;;;3.38;;
39094;SDS011;24840;47.508;19.376;2023-05-07T10:28:14;5.38;;;4.25;;
39094;SDS011;24840;47.508;19.376;2023-05-07T10:33:26;3.67;;;2.78;;
39094;SDS011;24840;47.508;19.376;2023-05-07T10:36:00;5.45;;;4.30;;
39094;SDS011;24840;47.508;19.376;2023-05-07T10:38:29;14.45;;;3.83;;
39094;SDS011;24840;47.508;19.376;2023-05-07T10:40:55;8.18;;;3.30;;
39094;SDS011;24840;47.508;19.376;2023-05-07T10:43:21;10.02;;;3.22;;
39094;SDS011;24840;47.508;19.376;2023-05-07T10:46:09;6.30;;;3.10;;
39094;SDS011;24840;47.508;19.376;2023-05-07T10:51:33;4.40;;;2.20;;
39094;SDS011;24840;47.508;19.376;2023-05-07T10:56:34;4.00;;;2.53;;
39094;SDS011;24840;47.508;19.376;2023-05-07T11:01:59;3.58;;;1.73;;
39094;SDS011;24840;47.508;19.376;2023-05-07T11:04:31;4.20;;;1.70;;
39094;SDS011;24840;47.508;19.376;2023-05-07T11:17:55;4.18;;;2.05;;
39094;SDS011;24840;47.508;19.376;2023-05-07T11:26:06;4.25;;;1.85;;
39094;SDS011;24840;47.508;19.376;2023-05-07T11:28:37;3.67;;;1.85;;
39094;SDS011;24840;47.508;19.376;2023-05-07T11:31:07;3.55;;;3.25;;
39094;SDS011;24840;47.508;19.376;2023-05-07T11:33:34;2.55;;;2.13;;
39094;SDS011;24840;47.508;19.376;2023-05-07T11:36:01;2.05;;;1.85;;
39094;SDS011;24840;47.508;19.376;2023-05-07T11:38:28;1.80;;;1.58;;
39094;SDS011;24840;47.508;19.376;2023-05-07T11:40:56;4.82;;;2.72;;
39094;SDS011;24840;47.508;19.376;2023-05-07T11:43:25;3.30;;;2.70;;
39094;SDS011;24840;47.508;19.376;2023-05-07T11:45:52;3.83;;;2.05;;
39094;SDS011;24840;47.508;19.376;2023-05-07T11:48:18;2.08;;;1.40;;
39094;SDS011;24840;47.508;19.376;2023-05-07T11:50:52;3.05;;;1.40;;
39094;SDS011;24840;47.508;19.376;2023-05-07T11:53:25;3.05;;;1.63;;
39094;SDS011;24840;47.508;19.376;2023-05-07T11:55:52;1.77;;;1.65;;
39094;SDS011;24840;47.508;19.376;2023-05-07T11:58:20;2.08;;;1.55;;
39094;SDS011;24840;47.508;19.376;2023-05-07T12:00:48;2.22;;;1.60;;
39094;SDS011;24840;47.508;19.376;2023-05-07T12:03:18;6.17;;;1.60;;
39094;SDS011;24840;47.508;19.376;2023-05-07T12:05:44;3.10;;;1.95;;
39094;SDS011;24840;47.508;19.376;2023-05-07T12:08:17;5.00;;;1.90;;
39094;SDS011;24840;47.508;19.376;2023-05-07T12:10:44;2.67;;;1.58;;
39094;SDS011;24840;47.508;19.376;2023-05-07T12:13:19;1.60;;;1.50;;
39094;SDS011;24840;47.508;19.376;2023-05-07T12:15:50;1.95;;;1.45;;
39094;SDS011;24840;47.508;19.376;2023-05-07T12:18:16;4.22;;;3.00;;
39094;SDS011;24840;47.508;19.376;2023-05-07T12:20:42;5.38;;;1.83;;
39094;SDS011;24840;47.508;19.376;2023-05-07T12:23:08;3.63;;;1.80;;
39094;SDS011;24840;47.508;19.376;2023-05-07T12:25:35;4.00;;;2.00;;
39094;SDS011;24840;47.508;19.376;2023-05-07T12:28:05;2.95;;;2.03;;
39094;SDS011;24840;47.508;19.376;2023-05-07T12:30:36;5.03;;;2.38;;
39094;SDS011;24840;47.508;19.376;2023-05-07T12:33:02;4.90;;;1.85;;
39094;SDS011;24840;47.508;19.376;2023-05-07T12:35:31;2.35;;;1.95;;
39094;SDS011;24840;47.508;19.376;2023-05-07T12:38:01;6.70;;;2.25;;
39094;SDS011;24840;47.508;19.376;2023-05-07T12:40:42;3.60;;;2.28;;
39094;SDS011;24840;47.508;19.376;2023-05-07T12:43:20;6.55;;;2.38;;
39094;SDS011;24840;47.508;19.376;2023-05-07T12:45:49;6.93;;;2.42;;
39094;SDS011;24840;47.508;19.376;2023-05-07T12:48:16;10.02;;;3.00;;
39094;SDS011;24840;47.508;19.376;2023-05-07T12:50:44;6.88;;;3.17;;
39094;SDS011;24840;47.508;19.376;2023-05-07T12:53:10;10.70;;;2.97;;
39094;SDS011;24840;47.508;19.376;2023-05-07T12:55:41;4.32;;;3.58;;
39094;SDS011;24840;47.508;19.376;2023-05-07T12:58:08;5.07;;;2.47;;
39094;SDS011;24840;47.508;19.376;2023-05-07T13:00:39;4.68;;;3.55;;
39094;SDS011;24840;47.508;19.376;2023-05-07T13:03:05;4.65;;;2.80;;
39094;SDS011;24840;47.508;19.376;2023-05-07T13:05:31;6.63;;;2.90;;
39094;SDS011;24840;47.508;19.376;2023-05-07T13:07:57;8.60;;;3.08;;
39094;SDS011;24840;47.508;19.376;2023-05-07T13:10:24;2.70;;;2.20;;
39094;SDS011;24840;47.508;19.376;2023-05-07T13:12:50;4.15;;;1.70;;
39094;SDS011;24840;47.508;19.376;2023-05-07T13:15:17;7.00;;;2.10;;
39094;SDS011;24840;47.508;19.376;2023-05-07T13:17:43;3.17;;;2.55;;
39094;SDS011;24840;47.508;19.376;2023-05-07T13:20:09;3.38;;;2.17;;
39094;SDS011;24840;47.508;19.376;2023-05-07T13:22:36;2.33;;;1.83;;
39094;SDS011;24840;47.508;19.376;2023-05-07T13:25:02;5.53;;;2.47;;
39094;SDS011;24840;47.508;19.376;2023-05-07T13:27:28;3.05;;;2.05;;
39094;SDS011;24840;47.508;19.376;2023-05-07T13:29:55;3.03;;;2.03;;
39094;SDS011;24840;47.508;19.376;2023-05-07T13:32:21;3.42;;;2.45;;
39094;SDS011;24840;47.508;19.376;2023-05-07T13:34:47;2.38;;;2.17;;
39094;SDS011;24840;47.508;19.376;2023-05-07T13:37:13;2.78;;;2.35;;
39094;SDS011;24840;47.508;19.376;2023-05-07T13:39:39;3.80;;;3.50;;
39094;SDS011;24840;47.508;19.376;2023-05-07T13:42:05;3.05;;;2.85;;
39094;SDS011;24840;47.508;19.376;2023-05-07T13:44:31;4.05;;;2.10;;
39094;SDS011;24840;47.508;19.376;2023-05-07T13:46:57;2.58;;;2.38;;
39094;SDS011;24840;47.508;19.376;2023-05-07T13:49:23;4.28;;;2.53;;
39094;SDS011;24840;47.508;19.376;2023-05-07T13:51:49;3.08;;;2.25;;
39094;SDS011;24840;47.508;19.376;2023-05-07T13:54:14;10.23;;;3.15;;
39094;SDS011;24840;47.508;19.376;2023-05-07T13:56:41;2.30;;;1.70;;
39094;SDS011;24840;47.508;19.376;2023-05-07T13:59:06;1.95;;;1.85;;
39094;SDS011;24840;47.508;19.376;2023-05-07T14:01:32;2.88;;;2.38;;
39094;SDS011;24840;47.508;19.376;2023-05-07T14:03:58;2.95;;;2.15;;
39094;SDS011;24840;47.508;19.376;2023-05-07T14:06:24;4.78;;;1.90;;
39094;SDS011;24840;47.508;19.376;2023-05-07T14:08:50;2.50;;;1.65;;
39094;SDS011;24840;47.508;19.376;2023-05-07T14:11:16;1.95;;;1.73;;
39094;SDS011;24840;47.508;19.376;2023-05-07T14:13:42;3.15;;;2.13;;
39094;SDS011;24840;47.508;19.376;2023-05-07T14:16:08;2.47;;;2.28;;
39094;SDS011;24840;47.508;19.376;2023-05-07T14:18:34;2.72;;;2.10;;
39094;SDS011;24840;47.508;19.376;2023-05-07T14:21:01;2.58;;;2.28;;
39094;SDS011;24840;47.508;19.376;2023-05-07T14:23:28;2.40;;;2.20;;
39094;SDS011;24840;47.508;19.376;2023-05-07T14:25:53;3.92;;;2.70;;
39094;SDS011;24840;47.508;19.376;2023-05-07T14:28:20;3.03;;;2.33;;
39094;SDS011;24840;47.508;19.376;2023-05-07T14:30:46;3.17;;;2.20;;
39094;SDS011;24840;47.508;19.376;2023-05-07T14:33:12;2.75;;;2.45;;
39094;SDS011;24840;47.508;19.376;2023-05-07T14:35:37;1.83;;;1.70;;
39094;SDS011;24840;47.508;19.376;2023-05-07T14:38:03;6.68;;;2.88;;
39094;SDS011;24840;47.508;19.376;2023-05-07T14:40:29;4.15;;;2.00;;
39094;SDS011;24840;47.508;19.376;2023-05-07T14:42:54;4.45;;;2.30;;
39094;SDS011;24840;47.508;19.376;2023-05-07T14:45:22;3.72;;;1.90;;
39094;SDS011;24840;47.508;19.376;2023-05-07T14:47:47;5.10;;;2.67;;
39094;SDS011;24840;47.508;19.376;2023-05-07T14:50:14;1.92;;;1.73;;
39094;SDS011;24840;47.508;19.376;2023-05-07T14:52:40;2.80;;;2.22;;
39094;SDS011;24840;47.508;19.376;2023-05-07T14:55:06;3.85;;;2.72;;